»·PEaware :: DAL86 KMFR-KPUW

DAL86 :: KMFR-KPUW

FLIGHT INFORMATION

Flight Status: Arrived
Operator:
Delta Air Lines
More flights by this operator :: More flights under this callsign
Pilot: Ernesto F. (37009)
Aircraft: BOEING 737-900
(B739)
More flights by this aircraft type
Origin: KMFR Rogue Valley Intl-Medford
United States
Destination: KPUW Pullman/Moscow Regl
United States
More flights between these airports :: More routes between these airports
Route: OED DSD PUW
File this flight plan on PilotEdge
Remarks: RMK / SIMBRIEF
Altitude:
(Current/Filed)
33,000ft
Speed:
(Current/Filed)
466kts
Departed: 20-Jun-23 07:57 AM
Arrived: 20-Jun-23 09:02 AM
Distance/Time
Traveled:
359nm/1:05
Distance/Time
To Go:
Arrived

Flight Plot

Page will automatically refresh every two minutes.

Flight plan parsing failed; only flown route is shown


Map Options




Map Legend


Flown Route
Filed Route
Departure Airport
Arrival Airport
Navaid (VOR, NDB)
Fix

Horizontal Profiles

Position Reports

Time Latitude Longitude Heading Altitude Ground
Speed
20-Jun-23 07:40 42.370084 -122.874105 247 1329ft 0kts
20-Jun-23 07:41 42.370084 -122.874105 247 1329ft 0kts
20-Jun-23 07:42 42.370084 -122.874105 247 1329ft 0kts
20-Jun-23 07:43 42.370084 -122.874105 247 1329ft 0kts
20-Jun-23 07:43 42.370084 -122.874105 247 1329ft 0kts
20-Jun-23 07:44 42.370084 -122.874105 247 1329ft 0kts
20-Jun-23 07:45 42.370084 -122.874105 247 1329ft 0kts
20-Jun-23 07:47 42.370006 -122.874357 247 1329ft 1kts
20-Jun-23 07:48 42.369938 -122.874571 246 1329ft 0kts
20-Jun-23 07:48 42.369938 -122.874571 246 1329ft 0kts
20-Jun-23 07:49 42.370064 -122.874705 58 1331ft 2kts
20-Jun-23 07:51 42.370212 -122.874659 27 1330ft 3kts
20-Jun-23 07:51 42.370370 -122.874530 41 1329ft 6kts
20-Jun-23 07:52 42.373105 -122.873934 338 1325ft 22kts
20-Jun-23 07:53 42.378625 -122.876820 339 1315ft 20kts
20-Jun-23 07:54 42.383509 -122.879357 338 1305ft 18kts
20-Jun-23 07:55 42.385685 -122.878858 161 1301ft 20kts
20-Jun-23 07:56 42.350553 -122.872771 215 3670ft 192kts
20-Jun-23 07:57 42.375008 -122.928825 4 6049ft 267kts
20-Jun-23 07:58 42.450077 -122.917401 5 10549ft 286kts
20-Jun-23 07:59 42.534251 -122.865706 31 12577ft 365kts
20-Jun-23 08:00 42.620055 -122.789663 31 13469ft 376kts
20-Jun-23 08:01 42.708448 -122.711620 31 17167ft 385kts
20-Jun-23 08:02 42.799968 -122.630584 31 20303ft 398kts
20-Jun-23 08:03 42.893739 -122.547246 30 23181ft 407kts
20-Jun-23 08:04 42.989429 -122.461899 30 24303ft 413kts
20-Jun-23 08:05 43.087103 -122.374438 31 26330ft 429kts
20-Jun-23 08:06 43.188679 -122.283122 31 28172ft 445kts
20-Jun-23 08:07 43.293186 -122.188767 31 30268ft 450kts
20-Jun-23 08:08 43.398534 -122.093269 31 31883ft 458kts
20-Jun-23 08:09 43.505551 -121.995844 31 33210ft 467kts
20-Jun-23 08:10 43.613284 -121.897321 31 33215ft 463kts
20-Jun-23 08:11 43.720624 -121.798748 32 33208ft 462kts
20-Jun-23 08:12 43.827456 -121.700214 32 33205ft 464kts
20-Jun-23 08:13 43.935222 -121.600375 32 33193ft 465kts
20-Jun-23 08:14 44.042713 -121.500346 32 33192ft 466kts
20-Jun-23 08:15 44.150448 -121.399635 32 33192ft 467kts
20-Jun-23 08:16 44.256973 -121.296458 40 33195ft 467kts
20-Jun-23 08:17 44.344045 -121.161332 47 33200ft 469kts
20-Jun-23 08:18 44.430245 -121.024549 47 33194ft 470kts
20-Jun-23 08:19 44.516800 -120.887504 47 33188ft 471kts
20-Jun-23 08:20 44.603428 -120.749652 47 33187ft 471kts
20-Jun-23 08:21 44.690092 -120.611051 48 33185ft 471kts
20-Jun-23 08:22 44.776217 -120.472622 48 33181ft 471kts
20-Jun-23 08:23 44.862369 -120.333483 48 33178ft 471kts
20-Jun-23 08:24 44.948391 -120.193849 48 33187ft 472kts
20-Jun-23 08:25 45.034412 -120.053523 48 33183ft 473kts
20-Jun-23 08:26 45.120389 -119.912565 49 33182ft 474kts
20-Jun-23 08:27 45.206247 -119.771091 49 33179ft 474kts
20-Jun-23 08:28 45.292232 -119.628689 49 33175ft 475kts
20-Jun-23 08:29 45.378241 -119.485515 49 33171ft 477kts
20-Jun-23 08:30 45.464436 -119.341297 49 33173ft 479kts
20-Jun-23 08:31 45.550706 -119.196198 50 33173ft 480kts
20-Jun-23 08:32 45.636804 -119.050627 50 33177ft 480kts
20-Jun-23 08:33 45.722814 -118.904468 50 33167ft 481kts
20-Jun-23 08:34 45.808608 -118.757876 50 32327ft 481kts
20-Jun-23 08:35 45.894106 -118.611035 50 30690ft 477kts
20-Jun-23 08:36 45.978289 -118.465699 50 28906ft 468kts
20-Jun-23 08:37 46.062042 -118.320340 50 27262ft 474kts
20-Jun-23 08:38 46.146173 -118.173555 50 25247ft 474kts
20-Jun-23 08:39 46.228875 -118.028498 50 23249ft 459kts
20-Jun-23 08:40 46.308624 -117.887894 50 21065ft 445kts
20-Jun-23 08:41 46.385123 -117.752354 50 18162ft 423kts
20-Jun-23 08:42 46.455282 -117.627455 50 15024ft 388kts
20-Jun-23 08:43 46.522756 -117.506802 50 11928ft 364kts
20-Jun-23 08:44 46.600183 -117.438332 7 9650ft 300kts
20-Jun-23 08:45 46.661112 -117.391662 80 9658ft 272kts
20-Jun-23 08:46 46.665619 -117.267008 88 8360ft 306kts
20-Jun-23 08:47 46.668929 -117.150678 88 7098ft 272kts
20-Jun-23 08:48 46.673401 -117.042467 82 7045ft 251kts
20-Jun-23 08:49 46.684557 -116.954229 66 6604ft 195kts
20-Jun-23 08:50 46.723755 -116.907196 357 5822ft 189kts
20-Jun-23 08:51 46.768706 -116.935103 308 5012ft 179kts
20-Jun-23 08:52 46.774521 -116.997867 272 4222ft 138kts
20-Jun-23 08:53 46.760122 -117.044210 251 3505ft 121kts
20-Jun-23 08:54 46.750158 -117.084345 251 2876ft 128kts
20-Jun-23 08:55 46.733571 -117.119694 183 4349ft 148kts
20-Jun-23 08:56 46.721818 -117.059098 64 4869ft 202kts
20-Jun-23 08:57 46.743702 -116.985847 55 4113ft 186kts
20-Jun-23 08:58 46.770700 -116.999191 271 4148ft 134kts
20-Jun-23 08:59 46.759539 -117.046977 249 3358ft 125kts
20-Jun-23 09:00 46.747250 -117.096067 250 2620ft 129kts
20-Jun-23 09:01 46.742692 -117.115278 329 2568ft 3kts
20-Jun-23 09:02 46.743420 -117.113737 70 2567ft 6kts

Navigation Log

Ident Type
Flight plan parsing failed, navigation log unavailable